sensor_id;sensor_type;location;lat;lon;timestamp;P1;durP1;ratioP1;P2;durP2;ratioP2
65751;SDS011;52486;51.098;13.770;2023-06-01T00:02:02;1.08;;;1.00;;
65751;SDS011;52486;51.098;13.770;2023-06-01T00:04:28;1.13;;;0.88;;
65751;SDS011;52486;51.098;13.770;2023-06-01T00:06:54;1.27;;;1.00;;
65751;SDS011;52486;51.098;13.770;2023-06-01T00:09:21;1.08;;;1.00;;
65751;SDS011;52486;51.098;13.770;2023-06-01T00:11:47;1.08;;;0.98;;
65751;SDS011;52486;51.098;13.770;2023-06-01T00:14:13;0.80;;;0.80;;
65751;SDS011;52486;51.098;13.770;2023-06-01T00:16:39;1.15;;;1.00;;
65751;SDS011;52486;51.098;13.770;2023-06-01T00:19:05;1.42;;;1.17;;
65751;SDS011;52486;51.098;13.770;2023-06-01T00:21:32;0.82;;;0.82;;
65751;SDS011;52486;51.098;13.770;2023-06-01T00:24:00;0.90;;;0.90;;
65751;SDS011;52486;51.098;13.770;2023-06-01T00:26:26;0.90;;;0.90;;
65751;SDS011;52486;51.098;13.770;2023-06-01T00:28:55;1.27;;;1.00;;
65751;SDS011;52486;51.098;13.770;2023-06-01T00:31:21;1.55;;;1.00;;
65751;SDS011;52486;51.098;13.770;2023-06-01T00:33:47;1.15;;;1.05;;
65751;SDS011;52486;51.098;13.770;2023-06-01T00:36:13;1.83;;;1.10;;
65751;SDS011;52486;51.098;13.770;2023-06-01T00:38:39;1.20;;;1.10;;
65751;SDS011;52486;51.098;13.770;2023-06-01T00:41:05;1.02;;;0.93;;
65751;SDS011;52486;51.098;13.770;2023-06-01T00:43:31;0.82;;;0.82;;
65751;SDS011;52486;51.098;13.770;2023-06-01T00:45:57;1.17;;;0.93;;
65751;SDS011;52486;51.098;13.770;2023-06-01T00:48:24;1.20;;;1.02;;
65751;SDS011;52486;51.098;13.770;2023-06-01T00:50:50;1.33;;;1.20;;
65751;SDS011;52486;51.098;13.770;2023-06-01T00:53:17;1.02;;;0.93;;
65751;SDS011;52486;51.098;13.770;2023-06-01T00:55:44;1.20;;;0.90;;
65751;SDS011;52486;51.098;13.770;2023-06-01T00:58:11;1.20;;;1.10;;
65751;SDS011;52486;51.098;13.770;2023-06-01T01:00:38;1.20;;;1.10;;
65751;SDS011;52486;51.098;13.770;2023-06-01T01:03:05;1.10;;;0.98;;
65751;SDS011;52486;51.098;13.770;2023-06-01T01:05:38;1.20;;;1.10;;
65751;SDS011;52486;51.098;13.770;2023-06-01T01:13:19;2.15;;;1.00;;
65751;SDS011;52486;51.098;13.770;2023-06-01T01:18:15;0.85;;;0.85;;
65751;SDS011;52486;51.098;13.770;2023-06-01T01:20:48;0.93;;;0.93;;
65751;SDS011;52486;51.098;13.770;2023-06-01T01:28:42;1.55;;;1.08;;
65751;SDS011;52486;51.098;13.770;2023-06-01T01:31:09;1.13;;;1.00;;
65751;SDS011;52486;51.098;13.770;2023-06-01T01:33:35;1.05;;;0.90;;
65751;SDS011;52486;51.098;13.770;2023-06-01T01:36:02;1.02;;;0.93;;
65751;SDS011;52486;51.098;13.770;2023-06-01T01:38:29;3.30;;;1.00;;
65751;SDS011;52486;51.098;13.770;2023-06-01T01:40:55;1.35;;;1.10;;
65751;SDS011;52486;51.098;13.770;2023-06-01T01:43:21;1.00;;;1.00;;
65751;SDS011;52486;51.098;13.770;2023-06-01T01:45:51;1.73;;;1.10;;
65751;SDS011;52486;51.098;13.770;2023-06-01T01:48:23;1.30;;;1.20;;
65751;SDS011;52486;51.098;13.770;2023-06-01T01:50:50;6.68;;;1.17;;
65751;SDS011;52486;51.098;13.770;2023-06-01T01:53:17;1.17;;;1.08;;
65751;SDS011;52486;51.098;13.770;2023-06-01T01:55:48;1.08;;;1.08;;
65751;SDS011;52486;51.098;13.770;2023-06-01T01:58:14;1.00;;;0.98;;
65751;SDS011;52486;51.098;13.770;2023-06-01T02:00:41;1.30;;;1.20;;
65751;SDS011;52486;51.098;13.770;2023-06-01T02:03:17;0.90;;;0.90;;
65751;SDS011;52486;51.098;13.770;2023-06-01T02:05:44;1.90;;;1.10;;
65751;SDS011;52486;51.098;13.770;2023-06-01T02:08:10;1.13;;;1.02;;
65751;SDS011;52486;51.098;13.770;2023-06-01T02:10:36;1.42;;;1.33;;
65751;SDS011;52486;51.098;13.770;2023-06-01T02:13:03;1.60;;;1.08;;
65751;SDS011;52486;51.098;13.770;2023-06-01T02:15:29;1.73;;;1.10;;
65751;SDS011;52486;51.098;13.770;2023-06-01T02:17:55;1.52;;;1.20;;
65751;SDS011;52486;51.098;13.770;2023-06-01T02:20:21;0.88;;;0.88;;
65751;SDS011;52486;51.098;13.770;2023-06-01T02:22:48;1.60;;;1.10;;
65751;SDS011;52486;51.098;13.770;2023-06-01T02:25:14;1.10;;;1.00;;
65751;SDS011;52486;51.098;13.770;2023-06-01T02:27:40;1.40;;;1.30;;
65751;SDS011;52486;51.098;13.770;2023-06-01T02:30:07;1.20;;;1.10;;
65751;SDS011;52486;51.098;13.770;2023-06-01T02:32:33;1.77;;;1.10;;
65751;SDS011;52486;51.098;13.770;2023-06-01T02:34:59;1.02;;;0.93;;
65751;SDS011;52486;51.098;13.770;2023-06-01T02:37:26;2.40;;;1.20;;
65751;SDS011;52486;51.098;13.770;2023-06-01T02:39:52;2.80;;;1.00;;
65751;SDS011;52486;51.098;13.770;2023-06-01T02:42:18;1.20;;;1.10;;
65751;SDS011;52486;51.098;13.770;2023-06-01T02:44:44;1.20;;;1.00;;
65751;SDS011;52486;51.098;13.770;2023-06-01T02:47:10;1.00;;;0.95;;
65751;SDS011;52486;51.098;13.770;2023-06-01T02:49:36;1.35;;;1.17;;
65751;SDS011;52486;51.098;13.770;2023-06-01T02:52:02;2.50;;;1.10;;
65751;SDS011;52486;51.098;13.770;2023-06-01T02:54:28;1.30;;;1.20;;
65751;SDS011;52486;51.098;13.770;2023-06-01T02:56:54;1.30;;;1.20;;
65751;SDS011;52486;51.098;13.770;2023-06-01T02:59:21;3.08;;;1.55;;
65751;SDS011;52486;51.098;13.770;2023-06-01T03:01:47;0.90;;;0.90;;
65751;SDS011;52486;51.098;13.770;2023-06-01T03:04:13;2.58;;;1.20;;
65751;SDS011;52486;51.098;13.770;2023-06-01T03:06:40;1.20;;;1.10;;
65751;SDS011;52486;51.098;13.770;2023-06-01T03:09:06;2.45;;;1.02;;
65751;SDS011;52486;51.098;13.770;2023-06-01T03:11:42;1.30;;;1.20;;
65751;SDS011;52486;51.098;13.770;2023-06-01T03:14:08;1.13;;;1.02;;
65751;SDS011;52486;51.098;13.770;2023-06-01T03:16:34;0.95;;;0.93;;
65751;SDS011;52486;51.098;13.770;2023-06-01T03:19:00;1.13;;;1.02;;
65751;SDS011;52486;51.098;13.770;2023-06-01T03:21:26;1.33;;;1.20;;
65751;SDS011;52486;51.098;13.770;2023-06-01T03:23:52;1.58;;;1.05;;
65751;SDS011;52486;51.098;13.770;2023-06-01T03:26:18;1.50;;;1.10;;
65751;SDS011;52486;51.098;13.770;2023-06-01T03:28:46;1.30;;;1.20;;
65751;SDS011;52486;51.098;13.770;2023-06-01T03:31:12;1.85;;;1.10;;
65751;SDS011;52486;51.098;13.770;2023-06-01T03:33:38;2.65;;;1.30;;
65751;SDS011;52486;51.098;13.770;2023-06-01T03:36:04;1.20;;;1.10;;
65751;SDS011;52486;51.098;13.770;2023-06-01T03:38:32;1.55;;;1.42;;
65751;SDS011;52486;51.098;13.770;2023-06-01T03:40:59;1.73;;;1.30;;
65751;SDS011;52486;51.098;13.770;2023-06-01T03:43:25;1.20;;;1.10;;
65751;SDS011;52486;51.098;13.770;2023-06-01T03:45:51;0.80;;;0.80;;
65751;SDS011;52486;51.098;13.770;2023-06-01T03:48:16;1.27;;;1.00;;
65751;SDS011;52486;51.098;13.770;2023-06-01T03:50:42;1.35;;;1.10;;
65751;SDS011;52486;51.098;13.770;2023-06-01T03:53:08;2.03;;;1.17;;
65751;SDS011;52486;51.098;13.770;2023-06-01T03:55:35;3.30;;;1.25;;
65751;SDS011;52486;51.098;13.770;2023-06-01T03:58:01;1.05;;;1.00;;
65751;SDS011;52486;51.098;13.770;2023-06-01T04:00:28;1.20;;;1.10;;
65751;SDS011;52486;51.098;13.770;2023-06-01T04:02:55;1.73;;;1.15;;
65751;SDS011;52486;51.098;13.770;2023-06-01T04:05:23;1.20;;;1.10;;
65751;SDS011;52486;51.098;13.770;2023-06-01T04:07:51;1.60;;;1.02;;
65751;SDS011;52486;51.098;13.770;2023-06-01T04:10:18;1.08;;;0.98;;
65751;SDS011;52486;51.098;13.770;2023-06-01T04:12:45;1.48;;;1.20;;
65751;SDS011;52486;51.098;13.770;2023-06-01T04:15:14;2.70;;;1.05;;
65751;SDS011;52486;51.098;13.770;2023-06-01T04:17:41;1.70;;;1.25;;
65751;SDS011;52486;51.098;13.770;2023-06-01T04:20:09;2.35;;;1.20;;
65751;SDS011;52486;51.098;13.770;2023-06-01T04:22:38;2.53;;;1.08;;
65751;SDS011;52486;51.098;13.770;2023-06-01T04:25:05;1.13;;;1.02;;
65751;SDS011;52486;51.098;13.770;2023-06-01T04:27:33;1.88;;;1.30;;
65751;SDS011;52486;51.098;13.770;2023-06-01T04:30:03;1.20;;;1.10;;
65751;SDS011;52486;51.098;13.770;2023-06-01T04:35:03;1.02;;;1.00;;
65751;SDS011;52486;51.098;13.770;2023-06-01T04:37:33;1.98;;;1.20;;
65751;SDS011;52486;51.098;13.770;2023-06-01T04:39:59;1.10;;;1.00;;
65751;SDS011;52486;51.098;13.770;2023-06-01T04:42:26;1.27;;;1.17;;
65751;SDS011;52486;51.098;13.770;2023-06-01T04:44:53;2.13;;;1.30;;
65751;SDS011;52486;51.098;13.770;2023-06-01T04:47:18;2.95;;;1.08;;
65751;SDS011;52486;51.098;13.770;2023-06-01T04:49:47;2.15;;;1.20;;
65751;SDS011;52486;51.098;13.770;2023-06-01T04:52:12;1.20;;;1.08;;
65751;SDS011;52486;51.098;13.770;2023-06-01T04:54:38;3.05;;;1.15;;
65751;SDS011;52486;51.098;13.770;2023-06-01T04:57:04;1.20;;;1.10;;
65751;SDS011;52486;51.098;13.770;2023-06-01T04:59:33;1.88;;;1.00;;
65751;SDS011;52486;51.098;13.770;2023-06-01T05:01:59;1.40;;;1.02;;
65751;SDS011;52486;51.098;13.770;2023-06-01T05:04:25;1.27;;;1.00;;
65751;SDS011;52486;51.098;13.770;2023-06-01T05:06:51;1.63;;;1.30;;
65751;SDS011;52486;51.098;13.770;2023-06-01T05:09:18;2.13;;;1.00;;
65751;SDS011;52486;51.098;13.770;2023-06-01T05:11:44;1.10;;;1.00;;
65751;SDS011;52486;51.098;13.770;2023-06-01T05:14:10;2.03;;;1.20;;
65751;SDS011;52486;51.098;13.770;2023-06-01T05:16:36;2.25;;;1.10;;
65751;SDS011;52486;51.098;13.770;2023-06-01T05:19:02;1.20;;;1.10;;
65751;SDS011;52486;51.098;13.770;2023-06-01T05:21:28;2.72;;;1.20;;
65751;SDS011;52486;51.098;13.770;2023-06-01T05:23:56;1.30;;;1.20;;
65751;SDS011;52486;51.098;13.770;2023-06-01T05:26:22;1.20;;;1.10;;
65751;SDS011;52486;51.098;13.770;2023-06-01T05:28:48;1.30;;;1.20;;
65751;SDS011;52486;51.098;13.770;2023-06-01T05:31:14;1.40;;;1.30;;
65751;SDS011;52486;51.098;13.770;2023-06-01T05:33:41;1.65;;;1.10;;
65751;SDS011;52486;51.098;13.770;2023-06-01T05:36:07;2.20;;;1.10;;
65751;SDS011;52486;51.098;13.770;2023-06-01T05:38:33;1.20;;;1.13;;
65751;SDS011;52486;51.098;13.770;2023-06-01T05:40:59;1.23;;;1.13;;
65751;SDS011;52486;51.098;13.770;2023-06-01T05:43:25;1.15;;;1.00;;
65751;SDS011;52486;51.098;13.770;2023-06-01T05:45:51;1.27;;;1.13;;
65751;SDS011;52486;51.098;13.770;2023-06-01T05:48:17;1.33;;;1.17;;
65751;SDS011;52486;51.098;13.770;2023-06-01T05:50:43;4.20;;;1.35;;
65751;SDS011;52486;51.098;13.770;2023-06-01T05:53:09;1.20;;;1.10;;
65751;SDS011;52486;51.098;13.770;2023-06-01T05:55:35;2.08;;;1.10;;
65751;SDS011;52486;51.098;13.770;2023-06-01T05:58:02;1.15;;;1.08;;
65751;SDS011;52486;51.098;13.770;2023-06-01T06:00:28;2.42;;;1.20;;
65751;SDS011;52486;51.098;13.770;2023-06-01T06:02:53;1.23;;;1.00;;
65751;SDS011;52486;51.098;13.770;2023-06-01T06:05:19;4.85;;;1.85;;
65751;SDS011;52486;51.098;13.770;2023-06-01T06:07:45;10.18;;;2.20;;
65751;SDS011;52486;51.098;13.770;2023-06-01T06:10:11;7.38;;;2.00;;
65751;SDS011;52486;51.098;13.770;2023-06-01T06:12:37;4.70;;;2.45;;
65751;SDS011;52486;51.098;13.770;2023-06-01T06:15:03;4.43;;;2.40;;
65751;SDS011;52486;51.098;13.770;2023-06-01T06:17:30;3.80;;;2.00;;
65751;SDS011;52486;51.098;13.770;2023-06-01T06:19:56;3.92;;;2.20;;
65751;SDS011;52486;51.098;13.770;2023-06-01T06:22:21;7.13;;;2.20;;
65751;SDS011;52486;51.098;13.770;2023-06-01T06:24:47;8.27;;;2.35;;
65751;SDS011;52486;51.098;13.770;2023-06-01T06:27:14;8.13;;;2.20;;
65751;SDS011;52486;51.098;13.770;2023-06-01T06:29:40;6.85;;;2.30;;
65751;SDS011;52486;51.098;13.770;2023-06-01T06:32:06;9.00;;;2.38;;
65751;SDS011;52486;51.098;13.770;2023-06-01T06:34:32;9.80;;;2.13;;
65751;SDS011;52486;51.098;13.770;2023-06-01T06:37:02;6.03;;;2.50;;
65751;SDS011;52486;51.098;13.770;2023-06-01T06:39:29;8.80;;;2.22;;
65751;SDS011;52486;51.098;13.770;2023-06-01T06:41:55;7.53;;;2.30;;
65751;SDS011;52486;51.098;13.770;2023-06-01T06:44:21;5.38;;;2.40;;
65751;SDS011;52486;51.098;13.770;2023-06-01T06:46:47;5.35;;;2.33;;
65751;SDS011;52486;51.098;13.770;2023-06-01T06:49:13;7.32;;;2.35;;
65751;SDS011;52486;51.098;13.770;2023-06-01T06:51:39;3.97;;;2.05;;
65751;SDS011;52486;51.098;13.770;2023-06-01T06:54:05;9.15;;;2.53;;
65751;SDS011;52486;51.098;13.770;2023-06-01T06:56:31;6.68;;;2.20;;
65751;SDS011;52486;51.098;13.770;2023-06-01T06:58:57;6.40;;;1.95;;
65751;SDS011;52486;51.098;13.770;2023-06-01T07:01:23;5.55;;;1.98;;
65751;SDS011;52486;51.098;13.770;2023-06-01T07:03:51;7.03;;;2.75;;
65751;SDS011;52486;51.098;13.770;2023-06-01T07:06:17;8.27;;;2.00;;
65751;SDS011;52486;51.098;13.770;2023-06-01T07:08:43;6.70;;;1.95;;
65751;SDS011;52486;51.098;13.770;2023-06-01T07:11:09;9.70;;;2.60;;
65751;SDS011;52486;51.098;13.770;2023-06-01T07:13:35;5.22;;;1.80;;
65751;SDS011;52486;51.098;13.770;2023-06-01T07:16:02;8.93;;;2.05;;
65751;SDS011;52486;51.098;13.770;2023-06-01T07:18:29;6.28;;;2.13;;
65751;SDS011;52486;51.098;13.770;2023-06-01T07:20:55;10.13;;;2.55;;
65751;SDS011;52486;51.098;13.770;2023-06-01T07:23:22;7.35;;;2.13;;
65751;SDS011;52486;51.098;13.770;2023-06-01T07:25:48;4.68;;;2.08;;
65751;SDS011;52486;51.098;13.770;2023-06-01T07:28:14;5.72;;;2.20;;
65751;SDS011;52486;51.098;13.770;2023-06-01T07:30:40;5.63;;;2.08;;
65751;SDS011;52486;51.098;13.770;2023-06-01T07:33:06;7.55;;;2.45;;
65751;SDS011;52486;51.098;13.770;2023-06-01T07:35:33;7.72;;;2.45;;
65751;SDS011;52486;51.098;13.770;2023-06-01T07:38:00;7.55;;;2.22;;
65751;SDS011;52486;51.098;13.770;2023-06-01T07:40:28;3.88;;;2.00;;
65751;SDS011;52486;51.098;13.770;2023-06-01T07:42:55;6.85;;;2.10;;
65751;SDS011;52486;51.098;13.770;2023-06-01T07:45:21;8.32;;;2.25;;
65751;SDS011;52486;51.098;13.770;2023-06-01T07:47:48;6.05;;;2.63;;
65751;SDS011;52486;51.098;13.770;2023-06-01T07:50:15;8.45;;;2.38;;
65751;SDS011;52486;51.098;13.770;2023-06-01T07:52:41;7.60;;;2.35;;
65751;SDS011;52486;51.098;13.770;2023-06-01T07:55:07;11.45;;;2.30;;
65751;SDS011;52486;51.098;13.770;2023-06-01T07:57:37;8.20;;;2.23;;
65751;SDS011;52486;51.098;13.770;2023-06-01T08:00:03;12.13;;;2.60;;
65751;SDS011;52486;51.098;13.770;2023-06-01T08:02:36;10.02;;;2.03;;
65751;SDS011;52486;51.098;13.770;2023-06-01T08:05:02;7.60;;;2.08;;
65751;SDS011;52486;51.098;13.770;2023-06-01T08:07:28;11.85;;;2.40;;
65751;SDS011;52486;51.098;13.770;2023-06-01T08:09:55;12.52;;;2.05;;
65751;SDS011;52486;51.098;13.770;2023-06-01T08:12:22;4.75;;;1.58;;
65751;SDS011;52486;51.098;13.770;2023-06-01T08:14:48;4.78;;;1.90;;
65751;SDS011;52486;51.098;13.770;2023-06-01T08:17:14;3.58;;;2.03;;
65751;SDS011;52486;51.098;13.770;2023-06-01T08:19:40;5.18;;;1.80;;
65751;SDS011;52486;51.098;13.770;2023-06-01T08:22:10;5.22;;;2.17;;
65751;SDS011;52486;51.098;13.770;2023-06-01T08:24:37;3.22;;;1.98;;
65751;SDS011;52486;51.098;13.770;2023-06-01T08:27:15;8.55;;;2.40;;
65751;SDS011;52486;51.098;13.770;2023-06-01T08:29:42;2.80;;;1.83;;
65751;SDS011;52486;51.098;13.770;2023-06-01T08:32:10;7.45;;;2.00;;
65751;SDS011;52486;51.098;13.770;2023-06-01T08:34:36;12.18;;;2.17;;
65751;SDS011;52486;51.098;13.770;2023-06-01T08:37:01;4.80;;;2.33;;
65751;SDS011;52486;51.098;13.770;2023-06-01T08:39:27;5.28;;;2.38;;
65751;SDS011;52486;51.098;13.770;2023-06-01T08:41:58;5.15;;;1.85;;
65751;SDS011;52486;51.098;13.770;2023-06-01T08:44:28;12.57;;;2.10;;
65751;SDS011;52486;51.098;13.770;2023-06-01T08:47:04;17.45;;;1.98;;
65751;SDS011;52486;51.098;13.770;2023-06-01T08:49:30;6.82;;;1.90;;
65751;SDS011;52486;51.098;13.770;2023-06-01T08:51:59;6.18;;;1.92;;
65751;SDS011;52486;51.098;13.770;2023-06-01T08:54:27;7.03;;;2.08;;
65751;SDS011;52486;51.098;13.770;2023-06-01T08:56:57;5.63;;;2.05;;
65751;SDS011;52486;51.098;13.770;2023-06-01T08:59:25;4.78;;;2.00;;
65751;SDS011;52486;51.098;13.770;2023-06-01T09:01:51;2.40;;;1.50;;
65751;SDS011;52486;51.098;13.770;2023-06-01T09:04:18;4.75;;;2.08;;
65751;SDS011;52486;51.098;13.770;2023-06-01T09:06:44;6.15;;;1.95;;
65751;SDS011;52486;51.098;13.770;2023-06-01T09:09:11;6.03;;;2.55;;
65751;SDS011;52486;51.098;13.770;2023-06-01T09:11:38;4.95;;;1.67;;
65751;SDS011;52486;51.098;13.770;2023-06-01T09:14:21;7.05;;;2.03;;
65751;SDS011;52486;51.098;13.770;2023-06-01T09:16:48;9.32;;;1.85;;
65751;SDS011;52486;51.098;13.770;2023-06-01T09:19:15;6.28;;;1.95;;
65751;SDS011;52486;51.098;13.770;2023-06-01T09:21:54;5.40;;;1.75;;
65751;SDS011;52486;51.098;13.770;2023-06-01T09:24:21;3.88;;;1.98;;
65751;SDS011;52486;51.098;13.770;2023-06-01T09:26:47;6.20;;;1.90;;
65751;SDS011;52486;51.098;13.770;2023-06-01T09:29:14;4.72;;;1.77;;
65751;SDS011;52486;51.098;13.770;2023-06-01T09:31:41;6.05;;;1.70;;
65751;SDS011;52486;51.098;13.770;2023-06-01T09:34:18;4.35;;;1.52;;
65751;SDS011;52486;51.098;13.770;2023-06-01T09:36:48;5.00;;;1.80;;
65751;SDS011;52486;51.098;13.770;2023-06-01T09:39:16;1.83;;;1.52;;
65751;SDS011;52486;51.098;13.770;2023-06-01T09:44:13;3.27;;;1.70;;
65751;SDS011;52486;51.098;13.770;2023-06-01T09:46:49;6.35;;;1.98;;
65751;SDS011;52486;51.098;13.770;2023-06-01T09:49:19;5.88;;;2.05;;
65751;SDS011;52486;51.098;13.770;2023-06-01T09:51:53;2.80;;;1.60;;
65751;SDS011;52486;51.098;13.770;2023-06-01T09:57:06;6.70;;;1.73;;
65751;SDS011;52486;51.098;13.770;2023-06-01T10:02:29;6.63;;;1.75;;
65751;SDS011;52486;51.098;13.770;2023-06-01T10:04:56;5.90;;;1.80;;
65751;SDS011;52486;51.098;13.770;2023-06-01T10:07:30;8.48;;;1.40;;
65751;SDS011;52486;51.098;13.770;2023-06-01T10:09:59;5.88;;;1.67;;
65751;SDS011;52486;51.098;13.770;2023-06-01T10:12:27;5.13;;;1.70;;
65751;SDS011;52486;51.098;13.770;2023-06-01T10:14:53;2.65;;;1.55;;
65751;SDS011;52486;51.098;13.770;2023-06-01T10:17:21;4.30;;;1.60;;
65751;SDS011;52486;51.098;13.770;2023-06-01T10:19:47;2.67;;;1.50;;
65751;SDS011;52486;51.098;13.770;2023-06-01T10:22:14;2.58;;;1.50;;
65751;SDS011;52486;51.098;13.770;2023-06-01T10:24:41;4.05;;;1.60;;
65751;SDS011;52486;51.098;13.770;2023-06-01T10:27:14;1.92;;;1.40;;
65751;SDS011;52486;51.098;13.770;2023-06-01T10:29:41;3.05;;;1.40;;
65751;SDS011;52486;51.098;13.770;2023-06-01T10:32:40;6.00;;;1.40;;
65751;SDS011;52486;51.098;13.770;2023-06-01T10:34:54;3.33;;;1.50;;
65751;SDS011;52486;51.098;13.770;2023-06-01T10:37:21;2.03;;;1.33;;
65751;SDS011;52486;51.098;13.770;2023-06-01T10:39:47;2.30;;;1.33;;
65751;SDS011;52486;51.098;13.770;2023-06-01T10:47:06;2.22;;;1.30;;
65751;SDS011;52486;51.098;13.770;2023-06-01T10:50:33;3.42;;;1.55;;
65751;SDS011;52486;51.098;13.770;2023-06-01T10:52:28;2.38;;;1.10;;
65751;SDS011;52486;51.098;13.770;2023-06-01T10:54:56;1.42;;;1.13;;
65751;SDS011;52486;51.098;13.770;2023-06-01T10:57:41;3.88;;;1.15;;
65751;SDS011;52486;51.098;13.770;2023-06-01T11:00:11;2.50;;;1.48;;
65751;SDS011;52486;51.098;13.770;2023-06-01T11:08:01;4.65;;;1.50;;
65751;SDS011;52486;51.098;13.770;2023-06-01T11:13:14;4.55;;;1.70;;
65751;SDS011;52486;51.098;13.770;2023-06-01T11:18:43;4.80;;;1.63;;
65751;SDS011;52486;51.098;13.770;2023-06-01T11:21:14;11.15;;;2.00;;
65751;SDS011;52486;51.098;13.770;2023-06-01T11:23:41;7.75;;;1.60;;
65751;SDS011;52486;51.098;13.770;2023-06-01T11:26:08;2.95;;;1.50;;
65751;SDS011;52486;51.098;13.770;2023-06-01T11:28:34;3.30;;;1.90;;
65751;SDS011;52486;51.098;13.770;2023-06-01T11:31:03;2.72;;;1.90;;
65751;SDS011;52486;51.098;13.770;2023-06-01T11:33:35;6.22;;;1.50;;
65751;SDS011;52486;51.098;13.770;2023-06-01T11:36:04;3.67;;;1.45;;
65751;SDS011;52486;51.098;13.770;2023-06-01T11:38:35;3.83;;;1.40;;
65751;SDS011;52486;51.098;13.770;2023-06-01T11:41:03;2.55;;;1.48;;
65751;SDS011;52486;51.098;13.770;2023-06-01T11:43:33;5.88;;;1.55;;
65751;SDS011;52486;51.098;13.770;2023-06-01T11:46:05;3.50;;;1.50;;
65751;SDS011;52486;51.098;13.770;2023-06-01T11:48:33;3.75;;;1.40;;
65751;SDS011;52486;51.098;13.770;2023-06-01T11:50:59;5.28;;;1.40;;
65751;SDS011;52486;51.098;13.770;2023-06-01T11:53:30;4.10;;;1.35;;
65751;SDS011;52486;51.098;13.770;2023-06-01T11:55:58;3.13;;;1.17;;
65751;SDS011;52486;51.098;13.770;2023-06-01T11:58:27;2.85;;;1.40;;
65751;SDS011;52486;51.098;13.770;2023-06-01T12:00:55;1.35;;;1.23;;
65751;SDS011;52486;51.098;13.770;2023-06-01T12:03:22;2.00;;;1.33;;
65751;SDS011;52486;51.098;13.770;2023-06-01T12:05:52;2.70;;;1.20;;
65751;SDS011;52486;51.098;13.770;2023-06-01T12:08:21;1.40;;;1.30;;
65751;SDS011;52486;51.098;13.770;2023-06-01T12:10:49;1.52;;;1.42;;
65751;SDS011;52486;51.098;13.770;2023-06-01T12:13:16;4.32;;;1.55;;
65751;SDS011;52486;51.098;13.770;2023-06-01T12:15:43;4.28;;;1.65;;
65751;SDS011;52486;51.098;13.770;2023-06-01T12:18:10;2.35;;;1.60;;
65751;SDS011;52486;51.098;13.770;2023-06-01T12:20:40;4.60;;;1.40;;
65751;SDS011;52486;51.098;13.770;2023-06-01T12:25:50;4.20;;;1.65;;
65751;SDS011;52486;51.098;13.770;2023-06-01T12:28:24;3.80;;;1.70;;
65751;SDS011;52486;51.098;13.770;2023-06-01T12:33:38;3.50;;;1.75;;
65751;SDS011;52486;51.098;13.770;2023-06-01T12:36:04;5.82;;;1.70;;
65751;SDS011;52486;51.098;13.770;2023-06-01T12:39:13;4.65;;;1.60;;
65751;SDS011;52486;51.098;13.770;2023-06-01T12:41:20;4.93;;;1.80;;
65751;SDS011;52486;51.098;13.770;2023-06-01T12:43:47;10.68;;;2.28;;
65751;SDS011;52486;51.098;13.770;2023-06-01T12:46:17;7.18;;;2.08;;
65751;SDS011;52486;51.098;13.770;2023-06-01T12:48:47;3.92;;;2.03;;
65751;SDS011;52486;51.098;13.770;2023-06-01T12:51:14;6.57;;;2.10;;
65751;SDS011;52486;51.098;13.770;2023-06-01T12:53:40;7.15;;;2.00;;
65751;SDS011;52486;51.098;13.770;2023-06-01T12:56:09;5.18;;;1.95;;
65751;SDS011;52486;51.098;13.770;2023-06-01T12:58:35;4.95;;;2.00;;
65751;SDS011;52486;51.098;13.770;2023-06-01T13:01:01;4.32;;;2.08;;
65751;SDS011;52486;51.098;13.770;2023-06-01T13:03:28;6.55;;;2.30;;
65751;SDS011;52486;51.098;13.770;2023-06-01T13:05:54;3.30;;;2.13;;
65751;SDS011;52486;51.098;13.770;2023-06-01T13:08:21;3.10;;;2.05;;
65751;SDS011;52486;51.098;13.770;2023-06-01T13:10:47;5.60;;;1.80;;
65751;SDS011;52486;51.098;13.770;2023-06-01T13:13:13;3.63;;;2.05;;
65751;SDS011;52486;51.098;13.770;2023-06-01T13:15:43;4.75;;;2.10;;
65751;SDS011;52486;51.098;13.770;2023-06-01T13:18:12;2.42;;;1.83;;
65751;SDS011;52486;51.098;13.770;2023-06-01T13:20:38;3.05;;;1.65;;
65751;SDS011;52486;51.098;13.770;2023-06-01T13:23:06;3.10;;;1.85;;
65751;SDS011;52486;51.098;13.770;2023-06-01T13:25:33;3.15;;;1.83;;
65751;SDS011;52486;51.098;13.770;2023-06-01T13:28:00;3.92;;;2.15;;
65751;SDS011;52486;51.098;13.770;2023-06-01T13:30:26;4.70;;;2.20;;
65751;SDS011;52486;51.098;13.770;2023-06-01T13:32:53;2.58;;;2.00;;
65751;SDS011;52486;51.098;13.770;2023-06-01T13:35:22;5.35;;;2.15;;
65751;SDS011;52486;51.098;13.770;2023-06-01T13:37:48;6.63;;;2.22;;
65751;SDS011;52486;51.098;13.770;2023-06-01T13:40:14;5.72;;;2.10;;
65751;SDS011;52486;51.098;13.770;2023-06-01T13:42:44;9.40;;;2.05;;
65751;SDS011;52486;51.098;13.770;2023-06-01T13:45:10;2.47;;;1.85;;
65751;SDS011;52486;51.098;13.770;2023-06-01T13:47:37;2.35;;;2.05;;
65751;SDS011;52486;51.098;13.770;2023-06-01T13:50:02;6.88;;;2.65;;
65751;SDS011;52486;51.098;13.770;2023-06-01T13:52:29;3.70;;;2.20;;
65751;SDS011;52486;51.098;13.770;2023-06-01T13:54:55;4.22;;;2.10;;
65751;SDS011;52486;51.098;13.770;2023-06-01T13:57:22;9.07;;;2.10;;
65751;SDS011;52486;51.098;13.770;2023-06-01T13:59:48;9.23;;;1.95;;
65751;SDS011;52486;51.098;13.770;2023-06-01T14:02:14;11.52;;;2.45;;
65751;SDS011;52486;51.098;13.770;2023-06-01T14:04:40;6.30;;;2.70;;
65751;SDS011;52486;51.098;13.770;2023-06-01T14:07:07;12.88;;;2.80;;
65751;SDS011;52486;51.098;13.770;2023-06-01T14:09:33;8.27;;;2.90;;
65751;SDS011;52486;51.098;13.770;2023-06-01T14:11:59;7.28;;;2.70;;
65751;SDS011;52486;51.098;13.770;2023-06-01T14:14:25;6.30;;;2.72;;
65751;SDS011;52486;51.098;13.770;2023-06-01T14:16:50;11.18;;;3.38;;
65751;SDS011;52486;51.098;13.770;2023-06-01T14:19:16;13.77;;;3.40;;
65751;SDS011;52486;51.098;13.770;2023-06-01T14:21:42;5.63;;;2.90;;
65751;SDS011;52486;51.098;13.770;2023-06-01T14:24:08;6.28;;;3.20;;
65751;SDS011;52486;51.098;13.770;2023-06-01T14:26:34;5.95;;;3.00;;
65751;SDS011;52486;51.098;13.770;2023-06-01T14:29:00;7.72;;;3.35;;
65751;SDS011;52486;51.098;13.770;2023-06-01T14:31:26;14.52;;;3.05;;
65751;SDS011;52486;51.098;13.770;2023-06-01T14:33:51;7.03;;;3.42;;
65751;SDS011;52486;51.098;13.770;2023-06-01T14:36:17;6.20;;;3.53;;
65751;SDS011;52486;51.098;13.770;2023-06-01T14:38:45;6.28;;;3.10;;
65751;SDS011;52486;51.098;13.770;2023-06-01T14:41:11;12.65;;;3.05;;
65751;SDS011;52486;51.098;13.770;2023-06-01T14:43:36;10.73;;;3.10;;
65751;SDS011;52486;51.098;13.770;2023-06-01T14:46:04;6.57;;;2.63;;
65751;SDS011;52486;51.098;13.770;2023-06-01T14:48:30;5.75;;;2.78;;
65751;SDS011;52486;51.098;13.770;2023-06-01T14:50:56;6.72;;;3.20;;
65751;SDS011;52486;51.098;13.770;2023-06-01T14:53:21;8.60;;;2.90;;
65751;SDS011;52486;51.098;13.770;2023-06-01T14:55:47;4.80;;;2.92;;
65751;SDS011;52486;51.098;13.770;2023-06-01T14:58:13;4.53;;;2.80;;
65751;SDS011;52486;51.098;13.770;2023-06-01T15:00:38;5.97;;;3.05;;
65751;SDS011;52486;51.098;13.770;2023-06-01T15:03:05;3.42;;;2.80;;
65751;SDS011;52486;51.098;13.770;2023-06-01T15:05:35;3.72;;;2.80;;
65751;SDS011;52486;51.098;13.770;2023-06-01T15:08:01;8.52;;;2.67;;
65751;SDS011;52486;51.098;13.770;2023-06-01T15:10:26;9.48;;;2.88;;
65751;SDS011;52486;51.098;13.770;2023-06-01T15:12:52;4.88;;;2.85;;
65751;SDS011;52486;51.098;13.770;2023-06-01T15:15:18;3.83;;;2.60;;
65751;SDS011;52486;51.098;13.770;2023-06-01T15:17:44;9.02;;;2.55;;
65751;SDS011;52486;51.098;13.770;2023-06-01T15:20:10;4.40;;;2.85;;